Sutton, ND (58484)

05:57 AM CDT die 25o April, anno 2015 (GMT -0500)
Thurlow Farms | | Change Station
CLOSE
Current Station
Personal Weather Stations
Location: Carrington, ND
Elevation: 1535 ft
Nearby Weather Stations

Elev 1535 ft 47.43 °N, 98.84 °W | Updated 2 minutes ago

Aequaliter Nubila
Aequaliter Nubila
41.9 °F
Feels Like 42 °F
N
3.0
Ventus Variabilis Ventus from Auster
Gusts 4.0 mph

Hodie
High -- | Low -- °F
--% Chance of Precip.
Yesterday
High -- | Low -- °F
Precip. -- in
6:27 AM 8:36 PM
Waxing Crescent, 45% visible
Pressio 29.78 in
Visibilitas 3.0 milia passuum
Clouds Aequaliter Nubila 300 ft
Frigus Venti 42 °F
Frigus in quo Ros apparet 38 °F
Umor 86%
Rainfall 0.00 in
Snow Depth Not available.
UV 0 out of 12
Pollen 8.50 out of 12
Air Quality Not available.
Flu Activity Regional
SPECI KJMS 251016Z AUTO 09009KT 3SM BR OVC003 06/04 A2978 RMK AO2 T00560044

More Conditions Fewer Conditions

Pressio 29.78 in
Visibilitas 3.0 milia passuum
Clouds Aequaliter Nubila 300 ft
Frigus Venti 42 °F
Frigus in quo Ros apparet 38 °F
Umor 86%
Rainfall 0.00 in
Snow Depth Not available.
UV 0 out of 12
Pollen 8.50 out of 12
Air Quality Not available.
Flu Activity Regional
SPECI KJMS 251016Z AUTO 09009KT 3SM BR OVC003 06/04 A2978 RMK AO2 T00560044

More Conditions Fewer Conditions

10-Day Weather Forecast

Almanac

Astronomy

Apr. 25, 2015 Rise Set
Actual Time
Civil Twilight
Nautical Twilight
Astronomical Twilight
Moon
Length Of Visible Light
Length of Day
Tomorrow will be .
, % of the Moon is Illuminated

Today's Extremes

State Highs State Lows

Community

WunderPhotos

Upload Photos

1,816,639 photos uploaded!

WunderBlogs® & News

Nearby

Air Quality

  Air Quality AQ Index Pollutant
Not available.

Snow Depth

Station Depth Elevation

Earthquake Activity

City Distance Mag. Time & Date
Minimum magnitude displayed is 2.5.

Coastal Water Temperatures

Locus Calor

Stations

Nearby Weather Stations

Station Location Temp Frigus Venti Frigus in quo Ros apparet Umor Ventus Precip. Elev Renovata Type